createdAt,value
2023-03-27T13:46:16.548Z,16.83
2023-03-27T13:49:36.204Z,17.00
2023-03-27T13:53:06.779Z,17.03
2023-03-27T13:56:41.904Z,16.98
2023-03-27T14:00:27.561Z,16.99
2023-03-27T14:04:05.852Z,16.80
2023-03-27T14:07:43.647Z,16.71
2023-03-27T14:11:09.075Z,16.60
2023-03-27T14:14:39.046Z,16.44
2023-03-27T14:17:58.500Z,16.52
2023-03-27T14:21:10.514Z,16.28
2023-03-27T14:25:09.634Z,16.55
2023-03-27T14:28:35.155Z,15.95
2023-03-27T14:31:44.631Z,15.73
2023-03-27T14:35:05.228Z,15.69
2023-03-27T14:38:23.530Z,15.49
2023-03-27T14:41:29.129Z,15.29
2023-03-27T14:44:39.088Z,15.38
2023-03-27T14:48:14.964Z,15.22
2023-03-27T14:51:37.294Z,15.26
2023-03-27T14:54:54.998Z,15.36
2023-03-27T14:58:13.059Z,15.26
2023-03-27T15:01:19.128Z,15.30
2023-03-27T15:04:33.159Z,15.36
2023-03-27T15:07:49.140Z,15.38
2023-03-27T15:10:59.942Z,15.42
2023-03-27T15:14:24.967Z,15.36
2023-03-27T15:17:34.913Z,15.44
2023-03-27T15:20:42.341Z,15.52
2023-03-27T15:24:06.072Z,16.00
2023-03-27T15:27:21.678Z,15.82
2023-03-27T15:30:40.895Z,15.88
2023-03-27T15:34:03.682Z,15.83
2023-03-27T15:37:19.039Z,15.84
2023-03-27T15:40:40.319Z,16.12
2023-03-27T15:43:47.470Z,16.03
2023-03-27T15:46:56.526Z,15.93
2023-03-27T15:50:24.305Z,15.82
2023-03-27T15:53:54.002Z,15.64
2023-03-27T15:57:09.339Z,15.58
2023-03-27T16:00:17.826Z,15.57
2023-03-27T16:03:26.450Z,15.45
2023-03-27T16:06:37.044Z,15.25
2023-03-27T16:10:05.854Z,15.16
2023-03-27T16:13:27.655Z,15.06
2023-03-27T16:16:34.254Z,14.89
2023-03-27T16:19:58.866Z,14.74
2023-03-27T16:23:04.634Z,14.69
2023-03-27T16:26:15.593Z,14.63
2023-03-27T16:29:21.133Z,14.60
2023-03-27T16:32:26.934Z,14.59
2023-03-27T16:35:32.773Z,14.50
2023-03-27T16:38:41.015Z,14.56
2023-03-27T16:41:46.694Z,14.82
2023-03-27T16:44:52.736Z,14.68
2023-03-27T16:47:59.354Z,14.50
2023-03-27T16:51:05.332Z,14.56
2023-03-27T16:54:10.914Z,14.48
2023-03-27T16:57:17.471Z,14.44
2023-03-27T17:00:23.827Z,14.07
2023-03-27T17:03:29.560Z,13.94
2023-03-27T17:06:35.768Z,13.86
2023-03-27T17:09:41.287Z,13.71
2023-03-27T17:12:46.802Z,13.65
2023-03-27T17:15:52.095Z,13.72
2023-03-27T17:18:58.042Z,13.56
2023-03-27T17:22:03.981Z,13.51
2023-03-27T17:25:10.492Z,13.55
2023-03-27T17:28:16.490Z,13.42
2023-03-27T17:31:22.391Z,13.41
2023-03-27T17:34:28.824Z,13.17
2023-03-27T17:37:36.326Z,13.25
2023-03-27T17:40:41.970Z,13.18
2023-03-27T17:47:08.698Z,12.88
2023-03-27T17:50:13.903Z,12.94
2023-03-27T17:53:19.329Z,12.83
2023-03-27T17:56:26.393Z,12.59
2023-03-27T17:59:32.416Z,12.43
2023-03-27T18:02:37.857Z,12.40
2023-03-27T18:05:43.975Z,12.10
2023-03-27T18:08:49.823Z,12.08
2023-03-27T18:11:55.276Z,12.08
2023-03-27T18:15:00.743Z,12.12
2023-03-27T18:18:06.984Z,12.01
2023-03-27T18:21:14.979Z,11.89
2023-03-27T18:24:22.083Z,11.81
2023-03-27T18:27:27.973Z,11.79
2023-03-27T18:30:33.513Z,11.53
2023-03-27T18:33:39.495Z,12.26
2023-03-27T18:36:51.107Z,12.44
2023-03-27T18:39:56.348Z,12.33
2023-03-27T18:43:01.639Z,11.99
2023-03-27T18:46:08.035Z,11.98
2023-03-27T18:49:23.753Z,11.57
2023-03-27T18:52:29.891Z,11.53
2023-03-27T18:55:35.128Z,11.69
2023-03-27T18:58:41.116Z,11.78
2023-03-27T19:01:46.635Z,11.61
2023-03-27T19:04:53.431Z,12.16
2023-03-27T19:07:59.660Z,12.57
2023-03-27T19:11:06.837Z,12.32
2023-03-27T19:14:31.339Z,12.45
2023-03-27T19:17:55.640Z,12.49
2023-03-27T19:21:27.088Z,12.27
2023-03-27T19:24:43.423Z,12.21
2023-03-27T19:27:49.056Z,12.10
2023-03-27T19:30:54.608Z,11.87
2023-03-27T19:34:02.221Z,11.87
2023-03-27T19:37:09.178Z,11.90
2023-03-27T19:40:15.538Z,11.73
2023-03-27T19:43:21.836Z,11.25
2023-03-27T19:46:28.850Z,11.09
2023-03-27T19:49:35.468Z,10.98
2023-03-27T19:53:09.311Z,10.75
2023-03-27T19:56:15.653Z,10.56
2023-03-27T19:59:28.211Z,10.60
2023-03-27T20:02:37.520Z,10.25
2023-03-27T20:05:48.787Z,10.28
2023-03-27T20:08:54.079Z,10.32
2023-03-27T20:11:59.782Z,10.52
2023-03-27T20:15:12.235Z,10.79
2023-03-27T20:18:22.571Z,10.56
2023-03-27T20:21:28.780Z,10.62
2023-03-27T20:24:34.331Z,10.54
2023-03-27T20:27:39.815Z,10.48
2023-03-27T20:30:45.195Z,10.40
2023-03-27T20:33:52.505Z,10.30
2023-03-27T20:36:59.344Z,10.29
2023-03-27T20:40:53.102Z,10.16
2023-03-27T20:44:03.114Z,10.19
2023-03-27T20:47:13.483Z,10.13
2023-03-27T20:50:24.149Z,10.01
2023-03-27T20:53:34.572Z,10.01
2023-03-27T20:56:40.161Z,9.92
2023-03-27T20:59:47.620Z,9.78
2023-03-27T21:02:54.283Z,9.72
2023-03-27T21:06:00.222Z,9.70
2023-03-27T21:09:07.739Z,9.47
2023-03-27T21:12:13.359Z,9.35
2023-03-27T21:15:19.064Z,9.45
2023-03-27T21:18:25.249Z,9.47
2023-03-27T21:21:31.391Z,9.46
2023-03-27T21:24:36.726Z,9.36
2023-03-27T21:27:42.078Z,9.33
2023-03-27T21:30:48.670Z,9.19
2023-03-27T21:33:54.826Z,9.12
2023-03-27T21:37:02.827Z,9.26
2023-03-27T21:40:09.690Z,9.19
2023-03-27T21:43:15.882Z,9.18
2023-03-27T21:46:21.411Z,9.25
2023-03-27T21:49:27.280Z,9.32
2023-03-27T21:52:32.719Z,9.18
2023-03-27T21:55:38.718Z,9.18
2023-03-27T21:58:44.168Z,9.30
2023-03-27T22:01:49.975Z,9.18
2023-03-27T22:04:55.522Z,9.15
2023-03-27T22:08:00.475Z,9.07
2023-03-27T22:11:06.368Z,8.91
2023-03-27T22:14:12.045Z,9.00
2023-03-27T22:17:17.520Z,8.97
2023-03-27T22:20:23.039Z,8.89
2023-03-27T22:23:28.540Z,8.83
2023-03-27T22:26:37.628Z,8.94
2023-03-27T22:29:42.934Z,8.86
2023-03-27T22:32:48.062Z,8.78
2023-03-27T22:35:53.663Z,8.81
2023-03-27T22:38:59.423Z,8.76
2023-03-27T22:42:05.649Z,8.51
2023-03-27T22:45:11.551Z,8.52
2023-03-27T22:48:16.911Z,8.51
2023-03-27T22:51:22.528Z,8.41
2023-03-27T22:54:28.180Z,8.51
2023-03-27T22:57:35.317Z,8.35
2023-03-27T23:00:41.484Z,8.00
2023-03-27T23:03:47.109Z,7.95
2023-03-27T23:06:52.591Z,7.89
2023-03-27T23:09:57.834Z,7.87
2023-03-27T23:13:03.802Z,7.57
2023-03-27T23:16:10.112Z,7.57
2023-03-27T23:19:15.936Z,7.66
2023-03-27T23:22:21.265Z,7.58
2023-03-27T23:25:26.714Z,7.20
2023-03-27T23:28:34.071Z,7.13
2023-03-27T23:31:39.776Z,7.10
2023-03-27T23:34:45.216Z,7.01
2023-03-27T23:37:50.627Z,7.05
2023-03-27T23:40:57.972Z,6.76
2023-03-27T23:44:03.847Z,6.77
2023-03-27T23:47:10.185Z,6.66
2023-03-27T23:50:15.645Z,6.57
2023-03-27T23:53:22.507Z,6.47
2023-03-27T23:56:27.804Z,6.06
2023-03-27T23:59:38.297Z,6.06
